Katy, TX

4:24 PM CST on January 19, 2017 (GMT -0600)
Lakes of Bridgewater | | Change Station
Active Advisory: Flood Warning

Elev 141 ft 29.82 °N, 95.74 °W | Updated 10 seconds ago

Overcast
Overcast
61.9 °F
Feels Like 61.9 °F
N
3.0
Wind Variable Wind from South

Today
High -- | Low -- °F
--% Chance of Precip.
Yesterday
High -- | Low -- °F
Precip. -- in
Pressure 29.78 in
Visibility 8.0 miles
Clouds Overcast 800 ft
Dew Point 58 °F
Humidity 88%
Rainfall 0.46 in
Snow Depth Not available.
7:18 AM 5:49 PM
Waning Gibbous, 50% visible
METAR KTME 192215Z AUTO 21006KT 8SM OVC008 16/15 A2978 RMK AO2
Pressure 29.78 in
Visibility 8.0 miles
Clouds Overcast 800 ft
Dew Point 58 °F
Humidity 88%
Rainfall 0.46 in
Snow Depth Not available.
7:18 AM 5:49 PM
Waning Gibbous, 50% visible
METAR KTME 192215Z AUTO 21006KT 8SM OVC008 16/15 A2978 RMK AO2

Get Your Daily Forecast Email!

Thanks for signing up!

Be on the lookout for a verification email in your inbox.

You'll start receiving the daily forecast at 8 AM.

×

10-Day Weather Forecast

Almanac

Astronomy

Jan. 19, 2017 Rise Set
Actual Time
Civil Twilight
Nautical Twilight
Astronomical Twilight
Moon
Length of Visible Light
Length of Day
Tomorrow will be .
, % of the Moon is Illuminated

Today's Extremes

State Highs State Lows

Community

WunderPhotos

Upload Photos

1,962,540 photos uploaded!

WunderBlog® & News

Nearby

Air Quality

  Air Quality AQ Index Pollutant
Not available.

Snow Depth

Station Depth Elevation

Earthquake Activity

City Distance Mag. Time & Date
Minimum magnitude displayed is 2.5.

Coastal Water Temperatures

Place Temperature

Stations

Nearby Weather Stations

Station Location Temp. Windchill Dew Point Humidity Wind Precip. Elev Updated Type
                   

Watches & Warnings

Flood Warning
Issued: 8:52 AM CST Jan. 19, 2017 – National Weather Service

The Flood Warning continues for
the Little Cypress creek near Becker Road
* until further notice... or until the warning is canceled.
* At 0821 am Thursday the stage was 194.6 feet.
* Minor flooding is occurring and flooding is forecast.
* Flood stage is 194.6 feet.


Lat... Lon 3003 9581 3003 9581 3002 9579 3003 9579



                     flood observed forecast 6 am
location stage stage day time Fri Sat sun Mon

Little Cypress creek
Becker Road 195 194.6 Thu 08 am